sensor_id;sensor_type;location;lat;lon;timestamp;pressure;altitude;pressure_sealevel;temperature;humidity
64675;BME280;51090;51.512;11.332;2023-04-25T00:00:03;98519.81;;;8.76;95.09
64675;BME280;51090;51.512;11.332;2023-04-25T00:02:32;98511.88;;;8.76;94.48
64675;BME280;51090;51.512;11.332;2023-04-25T00:05:01;98512.09;;;8.74;96.30
64675;BME280;51090;51.512;11.332;2023-04-25T00:07:27;98515.50;;;8.68;96.48
64675;BME280;51090;51.512;11.332;2023-04-25T00:09:53;98519.97;;;8.67;94.63
64675;BME280;51090;51.512;11.332;2023-04-25T00:12:19;98522.63;;;8.67;94.29
64675;BME280;51090;51.512;11.332;2023-04-25T00:14:45;98526.69;;;8.63;94.35
64675;BME280;51090;51.512;11.332;2023-04-25T00:17:12;98529.09;;;8.65;94.03
64675;BME280;51090;51.512;11.332;2023-04-25T00:19:38;98528.69;;;8.61;94.44
64675;BME280;51090;51.512;11.332;2023-04-25T00:22:04;98533.34;;;8.59;94.51
64675;BME280;51090;51.512;11.332;2023-04-25T00:24:31;98542.47;;;8.57;94.84
64675;BME280;51090;51.512;11.332;2023-04-25T00:26:57;98535.94;;;8.53;95.99
64675;BME280;51090;51.512;11.332;2023-04-25T00:29:23;98541.22;;;8.53;95.53
64675;BME280;51090;51.512;11.332;2023-04-25T00:31:49;98533.50;;;8.51;96.53
64675;BME280;51090;51.512;11.332;2023-04-25T00:34:15;98538.59;;;8.53;97.88
64675;BME280;51090;51.512;11.332;2023-04-25T00:36:41;98532.31;;;8.54;95.49
64675;BME280;51090;51.512;11.332;2023-04-25T00:39:07;98533.13;;;8.54;95.42
64675;BME280;51090;51.512;11.332;2023-04-25T00:41:33;98531.09;;;8.56;94.90
64675;BME280;51090;51.512;11.332;2023-04-25T00:44:01;98531.72;;;8.58;94.69
64675;BME280;51090;51.512;11.332;2023-04-25T00:46:27;98528.63;;;8.55;94.54
64675;BME280;51090;51.512;11.332;2023-04-25T00:48:53;98521.91;;;8.52;94.82
64675;BME280;51090;51.512;11.332;2023-04-25T00:51:20;98522.94;;;8.51;95.18
64675;BME280;51090;51.512;11.332;2023-04-25T00:53:48;98515.19;;;8.49;95.29
64675;BME280;51090;51.512;11.332;2023-04-25T00:56:16;98521.88;;;8.45;94.63
64675;BME280;51090;51.512;11.332;2023-04-25T00:58:42;98518.81;;;8.42;96.43
64675;BME280;51090;51.512;11.332;2023-04-25T01:01:10;98518.00;;;8.41;96.38
64675;BME280;51090;51.512;11.332;2023-04-25T01:03:38;98514.31;;;8.42;96.55
64675;BME280;51090;51.512;11.332;2023-04-25T01:06:11;98524.09;;;8.42;97.43
64675;BME280;51090;51.512;11.332;2023-04-25T01:08:38;98524.84;;;8.36;98.37
64675;BME280;51090;51.512;11.332;2023-04-25T01:11:04;98521.38;;;8.35;96.49
64675;BME280;51090;51.512;11.332;2023-04-25T01:13:31;98512.63;;;8.35;96.91
64675;BME280;51090;51.512;11.332;2023-04-25T01:15:58;98518.75;;;8.35;97.73
64675;BME280;51090;51.512;11.332;2023-04-25T01:18:25;98521.16;;;8.37;95.34
64675;BME280;51090;51.512;11.332;2023-04-25T01:20:52;98520.00;;;8.39;96.28
64675;BME280;51090;51.512;11.332;2023-04-25T01:23:20;98517.72;;;8.36;98.54
64675;BME280;51090;51.512;11.332;2023-04-25T01:25:47;98518.28;;;8.32;97.74
64675;BME280;51090;51.512;11.332;2023-04-25T01:28:14;98530.50;;;8.33;96.73
64675;BME280;51090;51.512;11.332;2023-04-25T01:30:41;98528.06;;;8.31;97.17
64675;BME280;51090;51.512;11.332;2023-04-25T01:33:08;98517.31;;;8.33;96.32
64675;BME280;51090;51.512;11.332;2023-04-25T01:35:35;98519.72;;;8.27;96.49
64675;BME280;51090;51.512;11.332;2023-04-25T01:38:01;98511.78;;;8.27;96.45
64675;BME280;51090;51.512;11.332;2023-04-25T01:40:27;98510.34;;;8.25;97.07
64675;BME280;51090;51.512;11.332;2023-04-25T01:42:54;98511.16;;;8.25;96.72
64675;BME280;51090;51.512;11.332;2023-04-25T01:45:20;98524.53;;;8.24;96.34
64675;BME280;51090;51.512;11.332;2023-04-25T01:47:46;98522.91;;;8.23;96.68
64675;BME280;51090;51.512;11.332;2023-04-25T01:50:16;98523.88;;;8.15;100.00
64675;BME280;51090;51.512;11.332;2023-04-25T01:52:42;98522.69;;;8.18;96.23
64675;BME280;51090;51.512;11.332;2023-04-25T01:55:09;98522.22;;;8.14;97.96
64675;BME280;51090;51.512;11.332;2023-04-25T01:57:35;98520.19;;;8.10;98.07
64675;BME280;51090;51.512;11.332;2023-04-25T02:00:04;98523.63;;;8.10;97.63
64675;BME280;51090;51.512;11.332;2023-04-25T02:02:31;98522.38;;;8.06;98.03
64675;BME280;51090;51.512;11.332;2023-04-25T02:04:57;98530.28;;;8.06;97.18
64675;BME280;51090;51.512;11.332;2023-04-25T02:07:23;98526.41;;;8.02;99.41
64675;BME280;51090;51.512;11.332;2023-04-25T02:09:49;98527.22;;;8.02;97.84
64675;BME280;51090;51.512;11.332;2023-04-25T02:12:15;98529.22;;;8.00;98.66
64675;BME280;51090;51.512;11.332;2023-04-25T02:14:42;98528.41;;;8.00;96.81
64675;BME280;51090;51.512;11.332;2023-04-25T02:17:08;98526.16;;;7.97;97.30
64675;BME280;51090;51.512;11.332;2023-04-25T02:19:34;98523.31;;;7.98;97.81
64675;BME280;51090;51.512;11.332;2023-04-25T02:22:00;98512.34;;;7.95;99.36
64675;BME280;51090;51.512;11.332;2023-04-25T02:24:27;98527.72;;;7.91;100.00
64675;BME280;51090;51.512;11.332;2023-04-25T02:26:53;98517.16;;;7.91;97.56
64675;BME280;51090;51.512;11.332;2023-04-25T02:29:21;98523.63;;;7.89;97.75
64675;BME280;51090;51.512;11.332;2023-04-25T02:31:47;98526.06;;;7.83;99.46
64675;BME280;51090;51.512;11.332;2023-04-25T02:34:13;98530.69;;;7.81;98.82
64675;BME280;51090;51.512;11.332;2023-04-25T02:36:39;98519.09;;;7.76;100.00
64675;BME280;51090;51.512;11.332;2023-04-25T02:39:05;98521.53;;;7.77;97.86
64675;BME280;51090;51.512;11.332;2023-04-25T02:41:31;98523.53;;;7.75;99.67
64675;BME280;51090;51.512;11.332;2023-04-25T02:43:57;98533.66;;;7.72;99.30
64675;BME280;51090;51.512;11.332;2023-04-25T02:46:23;98529.19;;;7.72;98.49
64675;BME280;51090;51.512;11.332;2023-04-25T02:48:49;98532.22;;;7.69;99.36
64675;BME280;51090;51.512;11.332;2023-04-25T02:51:15;98524.03;;;7.64;100.00
64675;BME280;51090;51.512;11.332;2023-04-25T02:53:42;98527.88;;;7.61;100.00
64675;BME280;51090;51.512;11.332;2023-04-25T02:56:08;98522.75;;;7.60;99.16
64675;BME280;51090;51.512;11.332;2023-04-25T02:58:34;98518.06;;;7.55;98.50
64675;BME280;51090;51.512;11.332;2023-04-25T03:01:00;98509.06;;;7.50;99.33
64675;BME280;51090;51.512;11.332;2023-04-25T03:03:26;98519.63;;;7.50;99.52
64675;BME280;51090;51.512;11.332;2023-04-25T03:05:52;98513.09;;;7.46;100.00
64675;BME280;51090;51.512;11.332;2023-04-25T03:08:19;98511.28;;;7.46;100.00
64675;BME280;51090;51.512;11.332;2023-04-25T03:10:45;98509.28;;;7.48;99.79
64675;BME280;51090;51.512;11.332;2023-04-25T03:13:11;98508.81;;;7.45;99.84
64675;BME280;51090;51.512;11.332;2023-04-25T03:15:38;98507.03;;;7.45;100.00
64675;BME280;51090;51.512;11.332;2023-04-25T03:18:04;98504.56;;;7.44;100.00
64675;BME280;51090;51.512;11.332;2023-04-25T03:20:30;98506.19;;;7.45;99.97
64675;BME280;51090;51.512;11.332;2023-04-25T03:22:56;98506.75;;;7.40;100.00
64675;BME280;51090;51.512;11.332;2023-04-25T03:25:22;98509.75;;;7.37;100.00
64675;BME280;51090;51.512;11.332;2023-04-25T03:27:48;98509.31;;;7.33;100.00
64675;BME280;51090;51.512;11.332;2023-04-25T03:30:15;98510.34;;;7.32;100.00
64675;BME280;51090;51.512;11.332;2023-04-25T03:32:41;98512.13;;;7.32;100.00
64675;BME280;51090;51.512;11.332;2023-04-25T03:35:07;98518.69;;;7.36;100.00
64675;BME280;51090;51.512;11.332;2023-04-25T03:37:33;98518.03;;;7.34;100.00
64675;BME280;51090;51.512;11.332;2023-04-25T03:39:59;98513.94;;;7.31;100.00
64675;BME280;51090;51.512;11.332;2023-04-25T03:42:25;98524.72;;;7.30;100.00
64675;BME280;51090;51.512;11.332;2023-04-25T03:44:52;98514.97;;;7.30;100.00
64675;BME280;51090;51.512;11.332;2023-04-25T03:47:18;98509.06;;;7.28;100.00
64675;BME280;51090;51.512;11.332;2023-04-25T03:49:44;98512.06;;;7.25;100.00
64675;BME280;51090;51.512;11.332;2023-04-25T03:52:10;98511.44;;;7.23;100.00
64675;BME280;51090;51.512;11.332;2023-04-25T03:54:36;98521.34;;;7.21;100.00
64675;BME280;51090;51.512;11.332;2023-04-25T03:57:02;98514.44;;;7.20;100.00
64675;BME280;51090;51.512;11.332;2023-04-25T03:59:28;98516.44;;;7.18;100.00
64675;BME280;51090;51.512;11.332;2023-04-25T04:01:55;98518.28;;;7.17;100.00
64675;BME280;51090;51.512;11.332;2023-04-25T04:04:21;98508.53;;;7.18;100.00
64675;BME280;51090;51.512;11.332;2023-04-25T04:06:47;98510.16;;;7.19;100.00
64675;BME280;51090;51.512;11.332;2023-04-25T04:09:13;98508.38;;;7.19;100.00
64675;BME280;51090;51.512;11.332;2023-04-25T04:11:39;98513.44;;;7.21;100.00
64675;BME280;51090;51.512;11.332;2023-04-25T04:14:07;98517.34;;;7.25;100.00
64675;BME280;51090;51.512;11.332;2023-04-25T04:16:33;98516.16;;;7.28;100.00
64675;BME280;51090;51.512;11.332;2023-04-25T04:18:59;98523.78;;;7.37;100.00
64675;BME280;51090;51.512;11.332;2023-04-25T04:21:25;98522.47;;;7.48;100.00
64675;BME280;51090;51.512;11.332;2023-04-25T04:23:53;98532.63;;;7.51;100.00
64675;BME280;51090;51.512;11.332;2023-04-25T04:26:20;98525.34;;;7.53;100.00
64675;BME280;51090;51.512;11.332;2023-04-25T04:28:49;98528.03;;;7.60;100.00
64675;BME280;51090;51.512;11.332;2023-04-25T04:31:20;98536.22;;;7.65;100.00
64675;BME280;51090;51.512;11.332;2023-04-25T04:33:47;98532.63;;;7.73;100.00
64675;BME280;51090;51.512;11.332;2023-04-25T04:36:13;98533.91;;;7.77;100.00
64675;BME280;51090;51.512;11.332;2023-04-25T04:38:39;98543.09;;;7.81;100.00
64675;BME280;51090;51.512;11.332;2023-04-25T04:41:06;98532.56;;;7.88;100.00
64675;BME280;51090;51.512;11.332;2023-04-25T04:43:33;98518.00;;;7.92;100.00
64675;BME280;51090;51.512;11.332;2023-04-25T04:46:02;98518.84;;;7.99;100.00
64675;BME280;51090;51.512;11.332;2023-04-25T04:48:29;98527.84;;;8.04;100.00
64675;BME280;51090;51.512;11.332;2023-04-25T04:50:58;98525.25;;;8.11;100.00
64675;BME280;51090;51.512;11.332;2023-04-25T04:53:24;98524.50;;;8.17;100.00
64675;BME280;51090;51.512;11.332;2023-04-25T04:55:50;98532.69;;;8.29;100.00
64675;BME280;51090;51.512;11.332;2023-04-25T04:58:17;98534.25;;;8.45;100.00
64675;BME280;51090;51.512;11.332;2023-04-25T05:00:43;98536.38;;;8.56;100.00
64675;BME280;51090;51.512;11.332;2023-04-25T05:03:09;98549.63;;;8.63;100.00
64675;BME280;51090;51.512;11.332;2023-04-25T05:05:35;98543.84;;;8.81;100.00
64675;BME280;51090;51.512;11.332;2023-04-25T05:08:01;98548.19;;;8.95;100.00
64675;BME280;51090;51.512;11.332;2023-04-25T05:10:27;98552.91;;;9.06;99.43
64675;BME280;51090;51.512;11.332;2023-04-25T05:12:53;98544.03;;;9.21;98.37
64675;BME280;51090;51.512;11.332;2023-04-25T05:15:19;98549.38;;;9.34;98.56
64675;BME280;51090;51.512;11.332;2023-04-25T05:17:45;98553.28;;;9.51;95.39
64675;BME280;51090;51.512;11.332;2023-04-25T05:20:11;98578.84;;;10.19;89.86
64675;BME280;51090;51.512;11.332;2023-04-25T05:22:37;98549.00;;;9.44;94.91
64675;BME280;51090;51.512;11.332;2023-04-25T05:25:04;98548.44;;;9.62;95.35
64675;BME280;51090;51.512;11.332;2023-04-25T05:27:30;98550.88;;;9.70;94.83
64675;BME280;51090;51.512;11.332;2023-04-25T05:29:56;98554.38;;;9.77;94.09
64675;BME280;51090;51.512;11.332;2023-04-25T05:32:22;98560.09;;;9.87;93.54
64675;BME280;51090;51.512;11.332;2023-04-25T05:34:48;98548.47;;;9.95;93.43
64675;BME280;51090;51.512;11.332;2023-04-25T05:37:13;98557.44;;;10.14;93.11
64675;BME280;51090;51.512;11.332;2023-04-25T05:39:39;98557.84;;;10.24;92.69
64675;BME280;51090;51.512;11.332;2023-04-25T05:42:05;98564.00;;;10.31;90.98
64675;BME280;51090;51.512;11.332;2023-04-25T05:44:30;98560.09;;;10.27;90.01
64675;BME280;51090;51.512;11.332;2023-04-25T05:46:56;98573.75;;;10.24;90.61
64675;BME280;51090;51.512;11.332;2023-04-25T05:49:22;98571.91;;;10.24;90.33
64675;BME280;51090;51.512;11.332;2023-04-25T05:51:48;98586.19;;;10.17;90.02
64675;BME280;51090;51.512;11.332;2023-04-25T05:54:13;98579.88;;;10.18;90.58
64675;BME280;51090;51.512;11.332;2023-04-25T05:56:39;98578.84;;;10.19;90.44
64675;BME280;51090;51.512;11.332;2023-04-25T05:59:05;98586.38;;;10.22;90.51
64675;BME280;51090;51.512;11.332;2023-04-25T06:01:31;98594.53;;;10.27;90.26
64675;BME280;51090;51.512;11.332;2023-04-25T06:03:57;98583.59;;;10.30;90.01
64675;BME280;51090;51.512;11.332;2023-04-25T06:06:22;98592.16;;;10.45;89.69
64675;BME280;51090;51.512;11.332;2023-04-25T06:08:48;98589.69;;;10.64;89.22
64675;BME280;51090;51.512;11.332;2023-04-25T06:11:14;98574.75;;;10.89;89.63
64675;BME280;51090;51.512;11.332;2023-04-25T06:13:39;98593.41;;;11.28;87.87
64675;BME280;51090;51.512;11.332;2023-04-25T06:16:05;98604.34;;;11.45;84.77
64675;BME280;51090;51.512;11.332;2023-04-25T06:18:31;98609.34;;;11.21;82.36
64675;BME280;51090;51.512;11.332;2023-04-25T06:20:57;98586.94;;;11.10;82.62
64675;BME280;51090;51.512;11.332;2023-04-25T06:23:23;98602.66;;;11.05;83.58
64675;BME280;51090;51.512;11.332;2023-04-25T06:25:48;98607.97;;;10.99;84.01
64675;BME280;51090;51.512;11.332;2023-04-25T06:28:14;98613.91;;;10.87;84.78
64675;BME280;51090;51.512;11.332;2023-04-25T06:30:40;98605.16;;;10.74;85.62
64675;BME280;51090;51.512;11.332;2023-04-25T06:33:05;98602.75;;;10.59;85.51
64675;BME280;51090;51.512;11.332;2023-04-25T06:35:31;98612.13;;;10.48;87.29
64675;BME280;51090;51.512;11.332;2023-04-25T06:37:57;98609.06;;;10.38;87.56
64675;BME280;51090;51.512;11.332;2023-04-25T06:40:23;98614.75;;;10.35;87.24
64675;BME280;51090;51.512;11.332;2023-04-25T06:42:48;98606.81;;;10.28;87.52
64675;BME280;51090;51.512;11.332;2023-04-25T06:45:14;98622.25;;;10.24;88.15
64675;BME280;51090;51.512;11.332;2023-04-25T06:47:40;98625.34;;;10.15;89.02
64675;BME280;51090;51.512;11.332;2023-04-25T06:50:06;98623.66;;;9.87;89.28
64675;BME280;51090;51.512;11.332;2023-04-25T06:52:32;98620.78;;;9.82;89.52
64675;BME280;51090;51.512;11.332;2023-04-25T06:54:58;98630.56;;;9.81;88.95
64675;BME280;51090;51.512;11.332;2023-04-25T06:57:23;98625.00;;;9.70;85.92
64675;BME280;51090;51.512;11.332;2023-04-25T06:59:49;98631.00;;;9.98;86.01
64675;BME280;51090;51.512;11.332;2023-04-25T07:02:15;98632.22;;;10.09;84.89
64675;BME280;51090;51.512;11.332;2023-04-25T07:04:40;98630.22;;;10.18;83.36
64675;BME280;51090;51.512;11.332;2023-04-25T07:07:06;98631.50;;;10.35;81.51
64675;BME280;51090;51.512;11.332;2023-04-25T07:09:32;98640.88;;;10.31;79.69
64675;BME280;51090;51.512;11.332;2023-04-25T07:11:59;98622.31;;;10.31;77.38
64675;BME280;51090;51.512;11.332;2023-04-25T07:14:27;98648.00;;;10.71;78.32
64675;BME280;51090;51.512;11.332;2023-04-25T07:16:53;98651.88;;;10.75;73.62
64675;BME280;51090;51.512;11.332;2023-04-25T07:19:21;98621.47;;;10.84;75.58
64675;BME280;51090;51.512;11.332;2023-04-25T07:21:46;98645.31;;;11.10;73.79
64675;BME280;51090;51.512;11.332;2023-04-25T07:24:12;98651.16;;;11.32;71.21
64675;BME280;51090;51.512;11.332;2023-04-25T07:26:38;98656.69;;;11.24;72.32
64675;BME280;51090;51.512;11.332;2023-04-25T07:29:04;98661.84;;;11.06;70.13
64675;BME280;51090;51.512;11.332;2023-04-25T07:31:29;98663.06;;;11.03;73.91
64675;BME280;51090;51.512;11.332;2023-04-25T07:33:55;98643.06;;;11.07;71.32
64675;BME280;51090;51.512;11.332;2023-04-25T07:36:21;98646.97;;;11.05;70.54
64675;BME280;51090;51.512;11.332;2023-04-25T07:38:46;98658.41;;;10.92;61.92
64675;BME280;51090;51.512;11.332;2023-04-25T07:41:12;98663.28;;;10.88;63.87
64675;BME280;51090;51.512;11.332;2023-04-25T07:43:38;98662.69;;;11.00;68.05
64675;BME280;51090;51.512;11.332;2023-04-25T07:46:04;98662.03;;;11.11;66.75
64675;BME280;51090;51.512;11.332;2023-04-25T07:48:30;98671.63;;;10.99;64.90
64675;BME280;51090;51.512;11.332;2023-04-25T07:50:56;98667.34;;;11.18;66.77
64675;BME280;51090;51.512;11.332;2023-04-25T07:53:21;98658.94;;;11.27;67.35
64675;BME280;51090;51.512;11.332;2023-04-25T07:55:47;98675.97;;;11.71;66.25
64675;BME280;51090;51.512;11.332;2023-04-25T07:58:13;98672.59;;;11.96;65.97
64675;BME280;51090;51.512;11.332;2023-04-25T08:00:40;98681.69;;;12.45;64.71
64675;BME280;51090;51.512;11.332;2023-04-25T08:03:07;98678.69;;;12.67;61.46
64675;BME280;51090;51.512;11.332;2023-04-25T08:05:33;98680.56;;;13.10;63.32
64675;BME280;51090;51.512;11.332;2023-04-25T08:07:59;98686.19;;;13.20;57.15
64675;BME280;51090;51.512;11.332;2023-04-25T08:10:24;98695.88;;;13.14;53.56
64675;BME280;51090;51.512;11.332;2023-04-25T08:12:50;98699.47;;;13.01;55.69
64675;BME280;51090;51.512;11.332;2023-04-25T08:15:16;98676.38;;;12.77;54.23
64675;BME280;51090;51.512;11.332;2023-04-25T08:17:41;98692.19;;;12.65;54.76
64675;BME280;51090;51.512;11.332;2023-04-25T08:20:09;98695.00;;;12.45;55.20
64675;BME280;51090;51.512;11.332;2023-04-25T08:22:36;98687.28;;;12.37;56.53
64675;BME280;51090;51.512;11.332;2023-04-25T08:25:01;98702.38;;;12.43;56.55
64675;BME280;51090;51.512;11.332;2023-04-25T08:27:27;98705.38;;;12.22;56.50
64675;BME280;51090;51.512;11.332;2023-04-25T08:29:53;98720.81;;;11.99;55.19
64675;BME280;51090;51.512;11.332;2023-04-25T08:32:19;98713.31;;;12.28;57.47
64675;BME280;51090;51.512;11.332;2023-04-25T08:34:45;98708.72;;;12.42;55.32
64675;BME280;51090;51.512;11.332;2023-04-25T08:37:11;98699.53;;;12.38;55.96
64675;BME280;51090;51.512;11.332;2023-04-25T08:39:37;98701.63;;;12.36;54.25
64675;BME280;51090;51.512;11.332;2023-04-25T08:42:06;98707.34;;;12.33;53.19
64675;BME280;51090;51.512;11.332;2023-04-25T08:44:34;98727.28;;;12.17;52.13
64675;BME280;51090;51.512;11.332;2023-04-25T08:47:03;98734.16;;;11.86;55.33
64675;BME280;51090;51.512;11.332;2023-04-25T08:49:32;98721.41;;;12.02;56.13
64675;BME280;51090;51.512;11.332;2023-04-25T08:52:01;98726.63;;;12.22;55.13
64675;BME280;51090;51.512;11.332;2023-04-25T08:54:28;98747.91;;;12.22;55.48
64675;BME280;51090;51.512;11.332;2023-04-25T08:56:55;98726.81;;;12.27;51.51
64675;BME280;51090;51.512;11.332;2023-04-25T08:59:23;98753.59;;;12.25;51.84
64675;BME280;51090;51.512;11.332;2023-04-25T09:01:50;98749.69;;;12.34;53.81
64675;BME280;51090;51.512;11.332;2023-04-25T09:04:16;98741.97;;;12.26;54.61
64675;BME280;51090;51.512;11.332;2023-04-25T09:06:42;98755.53;;;12.43;52.96
64675;BME280;51090;51.512;11.332;2023-04-25T09:09:08;98761.56;;;12.32;52.48
64675;BME280;51090;51.512;11.332;2023-04-25T09:11:36;98742.91;;;12.00;53.61
64675;BME280;51090;51.512;11.332;2023-04-25T09:14:20;98771.94;;;11.95;52.89
64675;BME280;51090;51.512;11.332;2023-04-25T09:19:24;98762.25;;;12.14;56.05
64675;BME280;51090;51.512;11.332;2023-04-25T09:21:50;98773.44;;;12.23;53.43
64675;BME280;51090;51.512;11.332;2023-04-25T09:24:38;98770.69;;;12.42;51.34
64675;BME280;51090;51.512;11.332;2023-04-25T09:29:33;98759.09;;;12.94;52.13
64675;BME280;51090;51.512;11.332;2023-04-25T09:34:49;98782.13;;;13.06;52.36
64675;BME280;51090;51.512;11.332;2023-04-25T09:37:29;98767.03;;;13.25;51.28
64675;BME280;51090;51.512;11.332;2023-04-25T09:39:58;98782.59;;;13.03;49.08
64675;BME280;51090;51.512;11.332;2023-04-25T09:42:26;98804.47;;;12.74;48.41
64675;BME280;51090;51.512;11.332;2023-04-25T09:44:54;98789.28;;;12.81;48.29
64675;BME280;51090;51.512;11.332;2023-04-25T09:47:20;98786.28;;;13.02;49.72
64675;BME280;51090;51.512;11.332;2023-04-25T09:49:49;98776.81;;;13.06;47.51
64675;BME280;51090;51.512;11.332;2023-04-25T09:52:23;98781.22;;;13.19;49.83
64675;BME280;51090;51.512;11.332;2023-04-25T09:54:50;98790.88;;;12.89;47.11
64675;BME280;51090;51.512;11.332;2023-04-25T09:57:22;98798.13;;;12.75;44.35
64675;BME280;51090;51.512;11.332;2023-04-25T09:59:50;98789.47;;;12.54;45.69
64675;BME280;51090;51.512;11.332;2023-04-25T10:02:19;98806.13;;;12.75;46.08
64675;BME280;51090;51.512;11.332;2023-04-25T10:04:49;98790.59;;;12.97;46.62
64675;BME280;51090;51.512;11.332;2023-04-25T10:07:17;98799.13;;;13.37;47.12
64675;BME280;51090;51.512;11.332;2023-04-25T10:09:44;98805.09;;;13.33;41.35
64675;BME280;51090;51.512;11.332;2023-04-25T10:12:12;98792.84;;;13.25;42.03
64675;BME280;51090;51.512;11.332;2023-04-25T10:14:38;98774.69;;;13.15;42.22
64675;BME280;51090;51.512;11.332;2023-04-25T10:17:06;98802.41;;;13.58;43.33
64675;BME280;51090;51.512;11.332;2023-04-25T10:19:32;98797.41;;;13.68;43.48
64675;BME280;51090;51.512;11.332;2023-04-25T10:22:17;98820.00;;;13.40;39.91
64675;BME280;51090;51.512;11.332;2023-04-25T10:24:46;98792.91;;;13.43;42.28
64675;BME280;51090;51.512;11.332;2023-04-25T10:27:12;98822.03;;;13.63;40.74
64675;BME280;51090;51.512;11.332;2023-04-25T10:29:38;98805.53;;;13.55;42.84
64675;BME280;51090;51.512;11.332;2023-04-25T10:32:04;98811.63;;;13.62;44.71
64675;BME280;51090;51.512;11.332;2023-04-25T10:34:44;98807.22;;;13.49;42.51
64675;BME280;51090;51.512;11.332;2023-04-25T10:37:12;98808.31;;;13.41;43.43
64675;BME280;51090;51.512;11.332;2023-04-25T10:39:42;98816.91;;;13.12;41.79
64675;BME280;51090;51.512;11.332;2023-04-25T10:42:08;98814.69;;;13.08;41.42
64675;BME280;51090;51.512;11.332;2023-04-25T10:44:34;98807.13;;;13.05;41.33
64675;BME280;51090;51.512;11.332;2023-04-25T10:47:02;98805.94;;;13.01;41.45
64675;BME280;51090;51.512;11.332;2023-04-25T10:49:34;98789.50;;;13.36;42.70
64675;BME280;51090;51.512;11.332;2023-04-25T10:54:55;98788.63;;;14.53;41.41
64675;BME280;51090;51.512;11.332;2023-04-25T10:57:41;98797.31;;;14.78;38.48
64675;BME280;51090;51.512;11.332;2023-04-25T11:00:12;98789.25;;;15.09;39.29
64675;BME280;51090;51.512;11.332;2023-04-25T11:02:57;98808.59;;;14.92;38.39
64675;BME280;51090;51.512;11.332;2023-04-25T11:05:33;98800.47;;;14.08;38.37
64675;BME280;51090;51.512;11.332;2023-04-25T11:08:00;98815.91;;;13.38;39.13
64675;BME280;51090;51.512;11.332;2023-04-25T11:10:31;98841.88;;;12.79;39.36
64675;BME280;51090;51.512;11.332;2023-04-25T11:12:58;98835.56;;;12.35;40.26
64675;BME280;51090;51.512;11.332;2023-04-25T11:15:24;98828.69;;;12.20;39.79
64675;BME280;51090;51.512;11.332;2023-04-25T11:17:53;98832.59;;;12.05;40.87
64675;BME280;51090;51.512;11.332;2023-04-25T11:20:20;98830.16;;;12.03;40.19
64675;BME280;51090;51.512;11.332;2023-04-25T11:22:47;98851.75;;;12.33;41.09
64675;BME280;51090;51.512;11.332;2023-04-25T11:25:15;98837.22;;;12.36;40.84
64675;BME280;51090;51.512;11.332;2023-04-25T11:30:18;98847.53;;;12.57;41.39
64675;BME280;51090;51.512;11.332;2023-04-25T11:32:44;98829.06;;;12.69;40.05
64675;BME280;51090;51.512;11.332;2023-04-25T11:35:11;98864.97;;;12.47;37.21
64675;BME280;51090;51.512;11.332;2023-04-25T11:37:39;98846.81;;;12.37;37.70
64675;BME280;51090;51.512;11.332;2023-04-25T11:40:07;98838.53;;;12.58;39.46
64675;BME280;51090;51.512;11.332;2023-04-25T11:42:34;98848.47;;;13.08;39.97
64675;BME280;51090;51.512;11.332;2023-04-25T11:45:00;98836.47;;;13.24;38.43
64675;BME280;51090;51.512;11.332;2023-04-25T11:47:33;98852.75;;;13.66;36.25
64675;BME280;51090;51.512;11.332;2023-04-25T11:50:03;98840.25;;;13.66;37.18
64675;BME280;51090;51.512;11.332;2023-04-25T11:52:45;98844.13;;;13.89;37.45
64675;BME280;51090;51.512;11.332;2023-04-25T11:55:20;98850.50;;;14.25;35.83
64675;BME280;51090;51.512;11.332;2023-04-25T11:57:50;98843.56;;;14.24;36.94
64675;BME280;51090;51.512;11.332;2023-04-25T12:00:18;98843.19;;;14.38;38.14
64675;BME280;51090;51.512;11.332;2023-04-25T12:02:47;98843.69;;;14.29;36.45
64675;BME280;51090;51.512;11.332;2023-04-25T12:05:15;98875.16;;;13.83;36.55
64675;BME280;51090;51.512;11.332;2023-04-25T12:07:45;98854.41;;;13.42;37.13
64675;BME280;51090;51.512;11.332;2023-04-25T12:10:14;98868.47;;;12.85;36.24
64675;BME280;51090;51.512;11.332;2023-04-25T12:12:48;98865.25;;;12.77;36.43
64675;BME280;51090;51.512;11.332;2023-04-25T12:15:15;98880.09;;;12.53;36.73
64675;BME280;51090;51.512;11.332;2023-04-25T12:17:53;98859.03;;;12.51;37.56
64675;BME280;51090;51.512;11.332;2023-04-25T12:20:23;98882.34;;;12.49;36.70
64675;BME280;51090;51.512;11.332;2023-04-25T12:22:50;98880.03;;;12.66;38.14
64675;BME280;51090;51.512;11.332;2023-04-25T12:25:36;98886.56;;;13.08;38.69
64675;BME280;51090;51.512;11.332;2023-04-25T12:28:15;98893.75;;;13.40;37.25
64675;BME280;51090;51.512;11.332;2023-04-25T12:31:02;98893.03;;;13.51;35.17
64675;BME280;51090;51.512;11.332;2023-04-25T12:33:33;98896.88;;;13.62;35.37
64675;BME280;51090;51.512;11.332;2023-04-25T12:36:01;98903.47;;;13.53;33.82
64675;BME280;51090;51.512;11.332;2023-04-25T12:38:31;98865.34;;;12.95;34.16
64675;BME280;51090;51.512;11.332;2023-04-25T12:40:58;98898.06;;;13.02;34.58
64675;BME280;51090;51.512;11.332;2023-04-25T12:43:24;98893.47;;;13.16;36.06
64675;BME280;51090;51.512;11.332;2023-04-25T12:45:54;98902.44;;;12.83;36.50
64675;BME280;51090;51.512;11.332;2023-04-25T12:48:21;98882.22;;;12.82;36.94
64675;BME280;51090;51.512;11.332;2023-04-25T12:50:47;98906.16;;;12.82;36.55
64675;BME280;51090;51.512;11.332;2023-04-25T12:53:18;98903.88;;;12.86;35.84
64675;BME280;51090;51.512;11.332;2023-04-25T12:55:44;98900.69;;;13.09;37.45
64675;BME280;51090;51.512;11.332;2023-04-25T12:58:15;98909.34;;;13.36;37.79
64675;BME280;51090;51.512;11.332;2023-04-25T13:00:41;98910.72;;;13.70;38.71
64675;BME280;51090;51.512;11.332;2023-04-25T13:03:08;98902.88;;;13.76;38.39
64675;BME280;51090;51.512;11.332;2023-04-25T13:05:33;98904.09;;;13.80;38.40